sensor_id;sensor_type;location;lat;lon;timestamp;P1;durP1;ratioP1;P2;durP2;ratioP2
3601;SDS011;1815;50.950;6.920;2023-10-19T00:00:46;7.43;;;5.50;;
3601;SDS011;1815;50.950;6.920;2023-10-19T00:03:17;8.07;;;5.70;;
3601;SDS011;1815;50.950;6.920;2023-10-19T00:05:43;6.63;;;6.03;;
3601;SDS011;1815;50.950;6.920;2023-10-19T00:08:11;9.33;;;7.93;;
3601;SDS011;1815;50.950;6.920;2023-10-19T00:10:44;5.67;;;5.10;;
3601;SDS011;1815;50.950;6.920;2023-10-19T00:13:27;8.63;;;7.73;;
3601;SDS011;1815;50.950;6.920;2023-10-19T00:15:55;7.32;;;6.57;;
3601;SDS011;1815;50.950;6.920;2023-10-19T00:18:22;5.80;;;5.17;;
3601;SDS011;1815;50.950;6.920;2023-10-19T00:20:55;8.32;;;5.65;;
3601;SDS011;1815;50.950;6.920;2023-10-19T00:23:21;8.60;;;6.00;;
3601;SDS011;1815;50.950;6.920;2023-10-19T00:25:56;6.87;;;6.10;;
3601;SDS011;1815;50.950;6.920;2023-10-19T00:28:22;6.47;;;5.87;;
3601;SDS011;1815;50.950;6.920;2023-10-19T00:30:51;8.80;;;7.57;;
3601;SDS011;1815;50.950;6.920;2023-10-19T00:33:18;7.10;;;6.30;;
3601;SDS011;1815;50.950;6.920;2023-10-19T00:35:51;7.93;;;7.13;;
3601;SDS011;1815;50.950;6.920;2023-10-19T00:38:26;7.57;;;6.37;;
3601;SDS011;1815;50.950;6.920;2023-10-19T00:40:56;7.33;;;6.53;;
3601;SDS011;1815;50.950;6.920;2023-10-19T00:43:31;9.30;;;6.20;;
3601;SDS011;1815;50.950;6.920;2023-10-19T00:46:03;6.63;;;5.97;;
3601;SDS011;1815;50.950;6.920;2023-10-19T00:48:45;9.20;;;6.47;;
3601;SDS011;1815;50.950;6.920;2023-10-19T00:51:16;7.37;;;6.67;;
3601;SDS011;1815;50.950;6.920;2023-10-19T00:54:00;7.70;;;6.97;;
3601;SDS011;1815;50.950;6.920;2023-10-19T00:56:34;6.90;;;5.97;;
3601;SDS011;1815;50.950;6.920;2023-10-19T00:59:00;6.50;;;5.80;;
3601;SDS011;1815;50.950;6.920;2023-10-19T01:01:53;7.10;;;6.07;;
3601;SDS011;1815;50.950;6.920;2023-10-19T01:04:21;6.13;;;5.53;;
3601;SDS011;1815;50.950;6.920;2023-10-19T01:06:51;7.40;;;6.67;;
3601;SDS011;1815;50.950;6.920;2023-10-19T01:09:29;7.78;;;7.03;;
3601;SDS011;1815;50.950;6.920;2023-10-19T01:12:00;6.50;;;5.80;;
3601;SDS011;1815;50.950;6.920;2023-10-19T01:14:31;6.73;;;6.00;;
3601;SDS011;1815;50.950;6.920;2023-10-19T01:16:58;7.55;;;6.25;;
3601;SDS011;1815;50.950;6.920;2023-10-19T01:19:26;6.57;;;5.87;;
3601;SDS011;1815;50.950;6.920;2023-10-19T01:21:52;6.60;;;5.30;;
3601;SDS011;1815;50.950;6.920;2023-10-19T01:24:24;8.30;;;6.27;;
3601;SDS011;1815;50.950;6.920;2023-10-19T01:27:08;5.83;;;4.93;;
3601;SDS011;1815;50.950;6.920;2023-10-19T01:29:36;9.40;;;7.80;;
3601;SDS011;1815;50.950;6.920;2023-10-19T01:32:04;6.50;;;5.90;;
3601;SDS011;1815;50.950;6.920;2023-10-19T01:34:34;5.90;;;5.30;;
3601;SDS011;1815;50.950;6.920;2023-10-19T01:37:00;4.63;;;4.03;;
3601;SDS011;1815;50.950;6.920;2023-10-19T01:39:30;8.23;;;5.47;;
3601;SDS011;1815;50.950;6.920;2023-10-19T01:41:57;5.60;;;4.83;;
3601;SDS011;1815;50.950;6.920;2023-10-19T01:44:24;6.40;;;5.80;;
3601;SDS011;1815;50.950;6.920;2023-10-19T01:46:50;6.40;;;5.87;;
3601;SDS011;1815;50.950;6.920;2023-10-19T01:49:16;6.20;;;5.60;;
3601;SDS011;1815;50.950;6.920;2023-10-19T01:51:54;6.37;;;5.77;;
3601;SDS011;1815;50.950;6.920;2023-10-19T01:54:23;6.47;;;5.90;;
3601;SDS011;1815;50.950;6.920;2023-10-19T01:56:51;8.70;;;6.87;;
3601;SDS011;1815;50.950;6.920;2023-10-19T01:59:25;7.63;;;5.50;;
3601;SDS011;1815;50.950;6.920;2023-10-19T02:01:53;6.23;;;5.63;;
3601;SDS011;1815;50.950;6.920;2023-10-19T02:04:20;6.57;;;5.57;;
3601;SDS011;1815;50.950;6.920;2023-10-19T02:06:47;5.50;;;4.97;;
3601;SDS011;1815;50.950;6.920;2023-10-19T02:09:15;7.33;;;6.73;;
3601;SDS011;1815;50.950;6.920;2023-10-19T02:11:42;5.87;;;5.13;;
3601;SDS011;1815;50.950;6.920;2023-10-19T02:14:10;5.90;;;5.13;;
3601;SDS011;1815;50.950;6.920;2023-10-19T02:16:44;7.33;;;4.90;;
3601;SDS011;1815;50.950;6.920;2023-10-19T02:19:19;6.27;;;5.53;;
3601;SDS011;1815;50.950;6.920;2023-10-19T02:21:47;5.50;;;5.00;;
3601;SDS011;1815;50.950;6.920;2023-10-19T02:24:14;7.00;;;6.30;;
3601;SDS011;1815;50.950;6.920;2023-10-19T02:26:43;6.83;;;6.23;;
3601;SDS011;1815;50.950;6.920;2023-10-19T02:29:12;7.67;;;6.00;;
3601;SDS011;1815;50.950;6.920;2023-10-19T02:31:41;5.87;;;5.30;;
3601;SDS011;1815;50.950;6.920;2023-10-19T02:34:08;8.17;;;6.37;;
3601;SDS011;1815;50.950;6.920;2023-10-19T02:36:35;8.37;;;7.67;;
3601;SDS011;1815;50.950;6.920;2023-10-19T02:39:05;9.00;;;7.17;;
3601;SDS011;1815;50.950;6.920;2023-10-19T02:41:38;8.30;;;5.50;;
3601;SDS011;1815;50.950;6.920;2023-10-19T02:44:10;6.23;;;5.73;;
3601;SDS011;1815;50.950;6.920;2023-10-19T02:46:48;6.13;;;5.13;;
3601;SDS011;1815;50.950;6.920;2023-10-19T02:49:15;7.83;;;7.03;;
3601;SDS011;1815;50.950;6.920;2023-10-19T02:51:48;6.50;;;5.80;;
3601;SDS011;1815;50.950;6.920;2023-10-19T02:54:16;5.50;;;5.00;;
3601;SDS011;1815;50.950;6.920;2023-10-19T02:56:45;8.03;;;6.77;;
3601;SDS011;1815;50.950;6.920;2023-10-19T02:59:19;5.27;;;4.77;;
3601;SDS011;1815;50.950;6.920;2023-10-19T03:01:50;7.00;;;6.40;;
3601;SDS011;1815;50.950;6.920;2023-10-19T03:04:17;7.10;;;5.70;;
3601;SDS011;1815;50.950;6.920;2023-10-19T03:06:43;8.07;;;7.20;;
3601;SDS011;1815;50.950;6.920;2023-10-19T03:09:09;7.03;;;6.13;;
3601;SDS011;1815;50.950;6.920;2023-10-19T03:11:39;6.37;;;5.53;;
3601;SDS011;1815;50.950;6.920;2023-10-19T03:14:09;5.90;;;5.30;;
3601;SDS011;1815;50.950;6.920;2023-10-19T03:16:37;6.13;;;5.07;;
3601;SDS011;1815;50.950;6.920;2023-10-19T03:19:06;7.07;;;6.20;;
3601;SDS011;1815;50.950;6.920;2023-10-19T03:21:33;7.67;;;7.03;;
3601;SDS011;1815;50.950;6.920;2023-10-19T03:24:06;8.70;;;5.90;;
3601;SDS011;1815;50.950;6.920;2023-10-19T03:26:38;6.33;;;5.77;;
3601;SDS011;1815;50.950;6.920;2023-10-19T03:29:08;6.87;;;6.17;;
3601;SDS011;1815;50.950;6.920;2023-10-19T03:31:41;5.60;;;5.10;;
3601;SDS011;1815;50.950;6.920;2023-10-19T03:34:11;4.40;;;4.00;;
3601;SDS011;1815;50.950;6.920;2023-10-19T03:36:38;4.80;;;4.30;;
3601;SDS011;1815;50.950;6.920;2023-10-19T03:39:04;5.47;;;4.97;;
3601;SDS011;1815;50.950;6.920;2023-10-19T03:41:39;5.67;;;5.17;;
3601;SDS011;1815;50.950;6.920;2023-10-19T03:44:12;6.67;;;6.03;;
3601;SDS011;1815;50.950;6.920;2023-10-19T03:46:44;7.27;;;6.57;;
3601;SDS011;1815;50.950;6.920;2023-10-19T03:49:23;6.00;;;5.40;;
3601;SDS011;1815;50.950;6.920;2023-10-19T03:51:55;5.90;;;5.30;;
3601;SDS011;1815;50.950;6.920;2023-10-19T03:54:24;6.67;;;5.60;;
3601;SDS011;1815;50.950;6.920;2023-10-19T03:56:52;6.23;;;5.63;;
3601;SDS011;1815;50.950;6.920;2023-10-19T03:59:18;6.87;;;6.17;;
3601;SDS011;1815;50.950;6.920;2023-10-19T04:01:45;6.03;;;5.27;;
3601;SDS011;1815;50.950;6.920;2023-10-19T04:04:12;4.60;;;3.80;;
3601;SDS011;1815;50.950;6.920;2023-10-19T04:06:39;5.23;;;4.73;;
3601;SDS011;1815;50.950;6.920;2023-10-19T04:09:05;6.70;;;5.43;;
3601;SDS011;1815;50.950;6.920;2023-10-19T04:11:31;5.60;;;4.83;;
3601;SDS011;1815;50.950;6.920;2023-10-19T04:14:01;6.30;;;4.37;;
3601;SDS011;1815;50.950;6.920;2023-10-19T04:16:29;5.70;;;5.10;;
3601;SDS011;1815;50.950;6.920;2023-10-19T04:18:56;5.40;;;4.73;;
3601;SDS011;1815;50.950;6.920;2023-10-19T04:21:23;7.43;;;6.20;;
3601;SDS011;1815;50.950;6.920;2023-10-19T04:23:49;7.13;;;5.90;;
3601;SDS011;1815;50.950;6.920;2023-10-19T04:26:15;4.97;;;4.47;;
3601;SDS011;1815;50.950;6.920;2023-10-19T04:28:43;7.50;;;5.30;;
3601;SDS011;1815;50.950;6.920;2023-10-19T04:31:10;6.37;;;5.70;;
3601;SDS011;1815;50.950;6.920;2023-10-19T04:33:39;5.60;;;4.90;;
3601;SDS011;1815;50.950;6.920;2023-10-19T04:36:08;6.07;;;5.47;;
3601;SDS011;1815;50.950;6.920;2023-10-19T04:38:36;5.00;;;4.50;;
3601;SDS011;1815;50.950;6.920;2023-10-19T04:41:03;5.53;;;5.00;;
3601;SDS011;1815;50.950;6.920;2023-10-19T04:43:32;5.83;;;5.33;;
3601;SDS011;1815;50.950;6.920;2023-10-19T04:45:59;4.20;;;3.57;;
3601;SDS011;1815;50.950;6.920;2023-10-19T04:48:25;5.13;;;4.63;;
3601;SDS011;1815;50.950;6.920;2023-10-19T04:50:50;8.70;;;4.87;;
3601;SDS011;1815;50.950;6.920;2023-10-19T04:53:16;5.80;;;5.20;;
3601;SDS011;1815;50.950;6.920;2023-10-19T04:55:41;5.87;;;4.63;;
3601;SDS011;1815;50.950;6.920;2023-10-19T04:58:08;6.00;;;5.17;;
3601;SDS011;1815;50.950;6.920;2023-10-19T05:00:35;5.47;;;4.97;;
3601;SDS011;1815;50.950;6.920;2023-10-19T05:03:01;4.90;;;4.40;;
3601;SDS011;1815;50.950;6.920;2023-10-19T05:05:27;8.07;;;4.30;;
3601;SDS011;1815;50.950;6.920;2023-10-19T05:07:53;5.27;;;4.77;;
3601;SDS011;1815;50.950;6.920;2023-10-19T05:10:18;5.53;;;4.60;;
3601;SDS011;1815;50.950;6.920;2023-10-19T05:12:44;5.40;;;4.90;;
3601;SDS011;1815;50.950;6.920;2023-10-19T05:15:10;7.03;;;3.80;;
3601;SDS011;1815;50.950;6.920;2023-10-19T05:17:36;6.10;;;4.80;;
3601;SDS011;1815;50.950;6.920;2023-10-19T05:20:02;4.90;;;4.50;;
3601;SDS011;1815;50.950;6.920;2023-10-19T05:22:30;5.13;;;4.37;;
3601;SDS011;1815;50.950;6.920;2023-10-19T05:24:57;6.43;;;4.07;;
3601;SDS011;1815;50.950;6.920;2023-10-19T05:27:23;6.77;;;4.77;;
3601;SDS011;1815;50.950;6.920;2023-10-19T05:29:49;6.47;;;5.40;;
3601;SDS011;1815;50.950;6.920;2023-10-19T05:35:24;5.43;;;4.37;;
3601;SDS011;1815;50.950;6.920;2023-10-19T05:37:54;7.87;;;4.50;;
3601;SDS011;1815;50.950;6.920;2023-10-19T05:40:24;7.97;;;4.13;;
3601;SDS011;1815;50.950;6.920;2023-10-19T05:42:58;4.83;;;4.40;;
3601;SDS011;1815;50.950;6.920;2023-10-19T05:45:26;5.07;;;3.77;;
3601;SDS011;1815;50.950;6.920;2023-10-19T05:47:53;4.80;;;4.30;;
3601;SDS011;1815;50.950;6.920;2023-10-19T05:50:20;5.17;;;4.63;;
3601;SDS011;1815;50.950;6.920;2023-10-19T05:52:45;5.77;;;4.60;;
3601;SDS011;1815;50.950;6.920;2023-10-19T05:55:12;5.10;;;4.60;;
3601;SDS011;1815;50.950;6.920;2023-10-19T05:57:38;5.77;;;4.83;;
3601;SDS011;1815;50.950;6.920;2023-10-19T06:00:08;5.17;;;3.77;;
3601;SDS011;1815;50.950;6.920;2023-10-19T06:02:45;5.23;;;4.63;;
3601;SDS011;1815;50.950;6.920;2023-10-19T06:05:14;5.13;;;4.20;;
3601;SDS011;1815;50.950;6.920;2023-10-19T06:07:41;6.17;;;4.87;;
3601;SDS011;1815;50.950;6.920;2023-10-19T06:10:10;5.50;;;4.60;;
3601;SDS011;1815;50.950;6.920;2023-10-19T06:12:41;6.20;;;5.43;;
3601;SDS011;1815;50.950;6.920;2023-10-19T06:15:07;6.10;;;5.03;;
3601;SDS011;1815;50.950;6.920;2023-10-19T06:17:36;7.40;;;4.60;;
3601;SDS011;1815;50.950;6.920;2023-10-19T06:20:09;4.63;;;4.23;;
3601;SDS011;1815;50.950;6.920;2023-10-19T06:25:29;5.20;;;4.07;;
3601;SDS011;1815;50.950;6.920;2023-10-19T06:27:55;5.27;;;4.77;;
3601;SDS011;1815;50.950;6.920;2023-10-19T06:30:22;5.83;;;4.87;;
3601;SDS011;1815;50.950;6.920;2023-10-19T06:32:49;5.27;;;4.10;;
3601;SDS011;1815;50.950;6.920;2023-10-19T06:35:18;6.03;;;4.97;;
3601;SDS011;1815;50.950;6.920;2023-10-19T06:37:45;6.67;;;4.27;;
3601;SDS011;1815;50.950;6.920;2023-10-19T06:40:12;6.63;;;5.30;;
3601;SDS011;1815;50.950;6.920;2023-10-19T06:42:45;5.83;;;4.53;;
3601;SDS011;1815;50.950;6.920;2023-10-19T06:45:12;6.90;;;5.60;;
3601;SDS011;1815;50.950;6.920;2023-10-19T06:47:42;4.40;;;4.00;;
3601;SDS011;1815;50.950;6.920;2023-10-19T06:50:10;5.80;;;5.27;;
3601;SDS011;1815;50.950;6.920;2023-10-19T06:52:41;6.47;;;5.67;;
3601;SDS011;1815;50.950;6.920;2023-10-19T06:55:08;5.03;;;4.33;;
3601;SDS011;1815;50.950;6.920;2023-10-19T06:57:45;6.70;;;5.10;;
3601;SDS011;1815;50.950;6.920;2023-10-19T07:00:15;8.30;;;5.10;;
3601;SDS011;1815;50.950;6.920;2023-10-19T07:02:46;5.77;;;5.17;;
3601;SDS011;1815;50.950;6.920;2023-10-19T07:05:15;7.07;;;5.40;;
3601;SDS011;1815;50.950;6.920;2023-10-19T07:07:46;4.27;;;3.80;;
3601;SDS011;1815;50.950;6.920;2023-10-19T07:10:12;4.80;;;4.03;;
3601;SDS011;1815;50.950;6.920;2023-10-19T07:12:39;5.60;;;5.03;;
3601;SDS011;1815;50.950;6.920;2023-10-19T07:15:07;6.90;;;5.77;;
3601;SDS011;1815;50.950;6.920;2023-10-19T07:17:37;6.60;;;5.73;;
3601;SDS011;1815;50.950;6.920;2023-10-19T07:20:05;7.10;;;4.47;;
3601;SDS011;1815;50.950;6.920;2023-10-19T07:22:35;6.43;;;5.57;;
3601;SDS011;1815;50.950;6.920;2023-10-19T07:25:07;6.00;;;5.40;;
3601;SDS011;1815;50.950;6.920;2023-10-19T07:27:34;6.70;;;5.33;;
3601;SDS011;1815;50.950;6.920;2023-10-19T07:30:00;7.43;;;5.77;;
3601;SDS011;1815;50.950;6.920;2023-10-19T07:32:26;7.13;;;5.40;;
3601;SDS011;1815;50.950;6.920;2023-10-19T07:34:53;6.87;;;6.20;;
3601;SDS011;1815;50.950;6.920;2023-10-19T07:37:20;5.63;;;4.63;;
3601;SDS011;1815;50.950;6.920;2023-10-19T07:39:46;5.10;;;4.60;;
3601;SDS011;1815;50.950;6.920;2023-10-19T07:42:13;6.03;;;5.40;;
3601;SDS011;1815;50.950;6.920;2023-10-19T07:44:40;6.03;;;5.43;;
3601;SDS011;1815;50.950;6.920;2023-10-19T07:47:06;7.40;;;5.73;;
3601;SDS011;1815;50.950;6.920;2023-10-19T07:49:35;9.00;;;5.47;;
3601;SDS011;1815;50.950;6.920;2023-10-19T07:52:04;6.23;;;5.20;;
3601;SDS011;1815;50.950;6.920;2023-10-19T07:54:36;5.00;;;4.50;;
3601;SDS011;1815;50.950;6.920;2023-10-19T07:57:03;7.10;;;5.17;;
3601;SDS011;1815;50.950;6.920;2023-10-19T07:59:34;11.30;;;5.40;;
3601;SDS011;1815;50.950;6.920;2023-10-19T08:02:00;5.67;;;5.00;;
3601;SDS011;1815;50.950;6.920;2023-10-19T08:04:29;9.23;;;4.70;;
3601;SDS011;1815;50.950;6.920;2023-10-19T08:06:56;7.90;;;5.00;;
3601;SDS011;1815;50.950;6.920;2023-10-19T08:09:22;4.37;;;3.97;;
3601;SDS011;1815;50.950;6.920;2023-10-19T08:11:49;6.43;;;5.30;;
3601;SDS011;1815;50.950;6.920;2023-10-19T08:14:18;6.70;;;4.50;;
3601;SDS011;1815;50.950;6.920;2023-10-19T08:16:44;6.80;;;5.60;;
3601;SDS011;1815;50.950;6.920;2023-10-19T08:19:10;5.50;;;4.63;;
3601;SDS011;1815;50.950;6.920;2023-10-19T08:21:37;6.60;;;4.70;;
3601;SDS011;1815;50.950;6.920;2023-10-19T08:24:03;6.40;;;5.40;;
3601;SDS011;1815;50.950;6.920;2023-10-19T08:26:30;7.20;;;5.60;;
3601;SDS011;1815;50.950;6.920;2023-10-19T08:28:56;5.20;;;4.70;;
3601;SDS011;1815;50.950;6.920;2023-10-19T08:31:24;5.70;;;4.97;;
3601;SDS011;1815;50.950;6.920;2023-10-19T08:33:50;7.70;;;4.60;;
3601;SDS011;1815;50.950;6.920;2023-10-19T08:36:19;7.40;;;4.37;;
3601;SDS011;1815;50.950;6.920;2023-10-19T08:38:45;6.10;;;4.17;;
3601;SDS011;1815;50.950;6.920;2023-10-19T08:41:13;6.67;;;4.50;;
3601;SDS011;1815;50.950;6.920;2023-10-19T08:43:40;5.30;;;4.40;;
3601;SDS011;1815;50.950;6.920;2023-10-19T08:46:06;4.13;;;2.87;;
3601;SDS011;1815;50.950;6.920;2023-10-19T08:48:35;6.87;;;3.40;;
3601;SDS011;1815;50.950;6.920;2023-10-19T08:51:08;4.53;;;3.17;;
3601;SDS011;1815;50.950;6.920;2023-10-19T08:53:38;3.70;;;2.53;;
3601;SDS011;1815;50.950;6.920;2023-10-19T08:56:08;4.00;;;2.53;;
3601;SDS011;1815;50.950;6.920;2023-10-19T08:58:34;6.67;;;2.93;;
3601;SDS011;1815;50.950;6.920;2023-10-19T09:01:01;6.80;;;2.53;;
3601;SDS011;1815;50.950;6.920;2023-10-19T09:03:35;4.97;;;3.00;;
3601;SDS011;1815;50.950;6.920;2023-10-19T09:06:01;4.53;;;2.37;;
3601;SDS011;1815;50.950;6.920;2023-10-19T09:08:27;4.57;;;2.13;;
3601;SDS011;1815;50.950;6.920;2023-10-19T09:11:06;3.80;;;1.87;;
3601;SDS011;1815;50.950;6.920;2023-10-19T09:13:42;4.80;;;1.77;;
3601;SDS011;1815;50.950;6.920;2023-10-19T09:16:16;4.10;;;1.40;;
3601;SDS011;1815;50.950;6.920;2023-10-19T09:18:42;3.83;;;1.57;;
3601;SDS011;1815;50.950;6.920;2023-10-19T09:21:10;3.40;;;1.77;;
3601;SDS011;1815;50.950;6.920;2023-10-19T09:23:49;2.93;;;1.43;;
3601;SDS011;1815;50.950;6.920;2023-10-19T09:26:19;4.63;;;1.40;;
3601;SDS011;1815;50.950;6.920;2023-10-19T09:28:50;3.60;;;1.90;;
3601;SDS011;1815;50.950;6.920;2023-10-19T09:31:17;3.43;;;1.37;;
3601;SDS011;1815;50.950;6.920;2023-10-19T09:33:44;5.20;;;1.90;;
3601;SDS011;1815;50.950;6.920;2023-10-19T09:36:11;4.10;;;1.40;;
3601;SDS011;1815;50.950;6.920;2023-10-19T09:38:44;4.70;;;1.83;;
3601;SDS011;1815;50.950;6.920;2023-10-19T09:41:13;5.37;;;1.53;;
3601;SDS011;1815;50.950;6.920;2023-10-19T09:43:41;2.70;;;1.20;;
3601;SDS011;1815;50.950;6.920;2023-10-19T09:46:11;2.53;;;1.10;;
3601;SDS011;1815;50.950;6.920;2023-10-19T09:48:42;3.50;;;1.20;;
3601;SDS011;1815;50.950;6.920;2023-10-19T09:51:13;3.77;;;1.20;;
3601;SDS011;1815;50.950;6.920;2023-10-19T09:53:41;4.33;;;1.30;;
3601;SDS011;1815;50.950;6.920;2023-10-19T09:56:24;4.17;;;1.10;;
3601;SDS011;1815;50.950;6.920;2023-10-19T09:58:57;3.77;;;1.83;;
3601;SDS011;1815;50.950;6.920;2023-10-19T10:01:26;4.73;;;1.20;;
3601;SDS011;1815;50.950;6.920;2023-10-19T10:03:53;3.30;;;1.50;;
3601;SDS011;1815;50.950;6.920;2023-10-19T10:09:19;4.03;;;1.30;;
3601;SDS011;1815;50.950;6.920;2023-10-19T10:11:52;6.77;;;1.00;;
3601;SDS011;1815;50.950;6.920;2023-10-19T10:14:27;4.83;;;1.47;;
3601;SDS011;1815;50.950;6.920;2023-10-19T10:17:01;4.43;;;1.10;;
3601;SDS011;1815;50.950;6.920;2023-10-19T10:19:27;2.73;;;1.00;;
3601;SDS011;1815;50.950;6.920;2023-10-19T10:22:03;6.50;;;1.27;;
3601;SDS011;1815;50.950;6.920;2023-10-19T10:24:40;3.30;;;1.17;;
3601;SDS011;1815;50.950;6.920;2023-10-19T10:27:07;5.00;;;1.00;;
3601;SDS011;1815;50.950;6.920;2023-10-19T10:29:33;3.63;;;0.90;;
3601;SDS011;1815;50.950;6.920;2023-10-19T10:31:58;3.73;;;1.40;;
3601;SDS011;1815;50.950;6.920;2023-10-19T10:37:09;5.63;;;1.00;;
3601;SDS011;1815;50.950;6.920;2023-10-19T10:39:39;3.80;;;1.40;;
3601;SDS011;1815;50.950;6.920;2023-10-19T10:42:09;5.20;;;1.70;;
3601;SDS011;1815;50.950;6.920;2023-10-19T10:44:37;6.83;;;2.43;;
3601;SDS011;1815;50.950;6.920;2023-10-19T10:47:20;3.50;;;1.20;;
3601;SDS011;1815;50.950;6.920;2023-10-19T10:49:50;4.07;;;1.80;;
3601;SDS011;1815;50.950;6.920;2023-10-19T10:52:32;5.53;;;1.80;;
3601;SDS011;1815;50.950;6.920;2023-10-19T10:55:11;3.87;;;1.60;;
3601;SDS011;1815;50.950;6.920;2023-10-19T10:57:39;5.13;;;1.20;;
3601;SDS011;1815;50.950;6.920;2023-10-19T11:00:09;5.40;;;1.10;;
3601;SDS011;1815;50.950;6.920;2023-10-19T11:02:43;3.30;;;1.10;;
3601;SDS011;1815;50.950;6.920;2023-10-19T11:05:14;6.60;;;1.00;;
3601;SDS011;1815;50.950;6.920;2023-10-19T11:10:30;4.10;;;1.50;;
3601;SDS011;1815;50.950;6.920;2023-10-19T11:13:09;2.93;;;0.80;;
3601;SDS011;1815;50.950;6.920;2023-10-19T11:15:36;4.90;;;1.67;;
3601;SDS011;1815;50.950;6.920;2023-10-19T11:18:03;7.87;;;3.90;;
3601;SDS011;1815;50.950;6.920;2023-10-19T11:20:30;10.97;;;3.90;;
3601;SDS011;1815;50.950;6.920;2023-10-19T11:22:56;5.93;;;2.40;;
3601;SDS011;1815;50.950;6.920;2023-10-19T11:25:23;6.83;;;2.00;;
3601;SDS011;1815;50.950;6.920;2023-10-19T11:27:55;4.00;;;1.60;;
3601;SDS011;1815;50.950;6.920;2023-10-19T11:30:32;8.30;;;1.77;;
3601;SDS011;1815;50.950;6.920;2023-10-19T11:32:57;6.10;;;1.83;;
3601;SDS011;1815;50.950;6.920;2023-10-19T11:35:30;3.00;;;1.33;;
3601;SDS011;1815;50.950;6.920;2023-10-19T11:37:57;8.33;;;1.43;;
3601;SDS011;1815;50.950;6.920;2023-10-19T11:40:27;4.67;;;1.50;;
3601;SDS011;1815;50.950;6.920;2023-10-19T11:42:53;5.07;;;1.10;;
3601;SDS011;1815;50.950;6.920;2023-10-19T11:45:23;4.63;;;1.30;;
3601;SDS011;1815;50.950;6.920;2023-10-19T11:47:49;6.17;;;1.70;;
3601;SDS011;1815;50.950;6.920;2023-10-19T11:50:16;4.90;;;1.57;;
3601;SDS011;1815;50.950;6.920;2023-10-19T11:52:43;5.10;;;1.30;;
3601;SDS011;1815;50.950;6.920;2023-10-19T11:55:14;7.77;;;1.60;;
3601;SDS011;1815;50.950;6.920;2023-10-19T11:57:43;4.60;;;1.37;;
3601;SDS011;1815;50.950;6.920;2023-10-19T12:00:09;4.67;;;1.20;;
3601;SDS011;1815;50.950;6.920;2023-10-19T12:02:49;3.80;;;1.37;;
3601;SDS011;1815;50.950;6.920;2023-10-19T12:05:15;3.93;;;1.20;;
3601;SDS011;1815;50.950;6.920;2023-10-19T12:07:40;6.73;;;1.20;;
3601;SDS011;1815;50.950;6.920;2023-10-19T12:10:07;4.97;;;1.73;;
3601;SDS011;1815;50.950;6.920;2023-10-19T12:12:37;5.00;;;1.20;;
3601;SDS011;1815;50.950;6.920;2023-10-19T12:15:06;6.53;;;1.60;;
3601;SDS011;1815;50.950;6.920;2023-10-19T12:17:33;7.47;;;1.70;;
3601;SDS011;1815;50.950;6.920;2023-10-19T12:19:59;4.77;;;1.40;;
3601;SDS011;1815;50.950;6.920;2023-10-19T12:22:26;4.13;;;1.60;;
3601;SDS011;1815;50.950;6.920;2023-10-19T12:24:57;4.37;;;1.53;;
3601;SDS011;1815;50.950;6.920;2023-10-19T12:27:24;9.83;;;4.03;;
3601;SDS011;1815;50.950;6.920;2023-10-19T12:29:50;5.90;;;3.37;;
3601;SDS011;1815;50.950;6.920;2023-10-19T12:32:19;7.17;;;4.20;;
3601;SDS011;1815;50.950;6.920;2023-10-19T12:34:46;6.60;;;2.77;;
3601;SDS011;1815;50.950;6.920;2023-10-19T12:37:18;4.47;;;1.40;;
3601;SDS011;1815;50.950;6.920;2023-10-19T12:39:44;2.87;;;1.20;;
3601;SDS011;1815;50.950;6.920;2023-10-19T12:42:12;8.80;;;1.73;;
3601;SDS011;1815;50.950;6.920;2023-10-19T12:44:39;4.97;;;1.70;;
3601;SDS011;1815;50.950;6.920;2023-10-19T12:47:06;5.40;;;2.50;;
3601;SDS011;1815;50.950;6.920;2023-10-19T12:49:42;4.67;;;2.70;;
3601;SDS011;1815;50.950;6.920;2023-10-19T12:52:11;6.03;;;2.93;;
3601;SDS011;1815;50.950;6.920;2023-10-19T12:54:37;4.00;;;1.80;;
3601;SDS011;1815;50.950;6.920;2023-10-19T12:57:03;4.47;;;2.10;;
3601;SDS011;1815;50.950;6.920;2023-10-19T12:59:33;5.53;;;1.90;;
3601;SDS011;1815;50.950;6.920;2023-10-19T13:02:02;5.87;;;1.87;;
3601;SDS011;1815;50.950;6.920;2023-10-19T13:04:28;5.67;;;2.20;;
3601;SDS011;1815;50.950;6.920;2023-10-19T13:06:56;5.03;;;1.50;;
3601;SDS011;1815;50.950;6.920;2023-10-19T13:09:25;4.30;;;1.63;;
3601;SDS011;1815;50.950;6.920;2023-10-19T13:11:59;6.23;;;1.70;;
3601;SDS011;1815;50.950;6.920;2023-10-19T13:14:26;3.83;;;1.20;;
3601;SDS011;1815;50.950;6.920;2023-10-19T13:16:52;4.33;;;1.70;;
3601;SDS011;1815;50.950;6.920;2023-10-19T13:19:20;5.23;;;2.00;;
3601;SDS011;1815;50.950;6.920;2023-10-19T13:21:49;8.87;;;3.50;;
3601;SDS011;1815;50.950;6.920;2023-10-19T13:24:15;6.30;;;3.07;;
3601;SDS011;1815;50.950;6.920;2023-10-19T13:26:42;6.10;;;2.60;;
3601;SDS011;1815;50.950;6.920;2023-10-19T13:29:11;6.63;;;1.73;;
3601;SDS011;1815;50.950;6.920;2023-10-19T13:31:37;5.30;;;1.37;;
3601;SDS011;1815;50.950;6.920;2023-10-19T13:34:03;8.13;;;1.97;;
3601;SDS011;1815;50.950;6.920;2023-10-19T13:36:35;6.43;;;1.70;;
3601;SDS011;1815;50.950;6.920;2023-10-19T13:39:01;7.43;;;1.73;;
3601;SDS011;1815;50.950;6.920;2023-10-19T13:41:28;3.53;;;1.40;;
3601;SDS011;1815;50.950;6.920;2023-10-19T13:43:54;7.93;;;1.47;;
3601;SDS011;1815;50.950;6.920;2023-10-19T13:46:20;5.50;;;2.40;;
3601;SDS011;1815;50.950;6.920;2023-10-19T13:48:49;3.80;;;1.30;;
3601;SDS011;1815;50.950;6.920;2023-10-19T13:51:17;5.37;;;1.47;;
3601;SDS011;1815;50.950;6.920;2023-10-19T13:53:45;3.47;;;1.80;;
3601;SDS011;1815;50.950;6.920;2023-10-19T13:56:12;7.17;;;1.83;;
3601;SDS011;1815;50.950;6.920;2023-10-19T13:58:39;8.80;;;2.20;;
3601;SDS011;1815;50.950;6.920;2023-10-19T14:01:09;8.93;;;2.40;;
3601;SDS011;1815;50.950;6.920;2023-10-19T14:03:35;6.17;;;1.70;;
3601;SDS011;1815;50.950;6.920;2023-10-19T14:06:03;5.07;;;2.10;;
3601;SDS011;1815;50.950;6.920;2023-10-19T14:08:29;6.20;;;2.00;;
3601;SDS011;1815;50.950;6.920;2023-10-19T14:11:02;6.17;;;1.90;;
3601;SDS011;1815;50.950;6.920;2023-10-19T14:13:28;6.10;;;1.70;;
3601;SDS011;1815;50.950;6.920;2023-10-19T14:15:54;4.60;;;1.60;;
3601;SDS011;1815;50.950;6.920;2023-10-19T14:18:21;5.30;;;1.67;;
3601;SDS011;1815;50.950;6.920;2023-10-19T14:20:46;7.20;;;2.27;;
3601;SDS011;1815;50.950;6.920;2023-10-19T14:23:12;4.27;;;1.50;;
3601;SDS011;1815;50.950;6.920;2023-10-19T14:25:38;4.70;;;1.40;;
3601;SDS011;1815;50.950;6.920;2023-10-19T14:28:04;6.67;;;1.87;;
3601;SDS011;1815;50.950;6.920;2023-10-19T14:30:32;4.43;;;1.63;;
3601;SDS011;1815;50.950;6.920;2023-10-19T14:32:58;3.90;;;1.53;;
3601;SDS011;1815;50.950;6.920;2023-10-19T14:35:24;4.50;;;2.30;;
3601;SDS011;1815;50.950;6.920;2023-10-19T14:37:52;8.53;;;1.93;;
3601;SDS011;1815;50.950;6.920;2023-10-19T14:40:25;5.90;;;1.60;;
3601;SDS011;1815;50.950;6.920;2023-10-19T14:42:52;6.23;;;1.80;;
3601;SDS011;1815;50.950;6.920;2023-10-19T14:45:26;4.63;;;2.53;;
3601;SDS011;1815;50.950;6.920;2023-10-19T14:47:56;5.33;;;2.07;;
3601;SDS011;1815;50.950;6.920;2023-10-19T14:50:23;16.47;;;3.20;;
3601;SDS011;1815;50.950;6.920;2023-10-19T14:52:51;2.70;;;1.57;;
3601;SDS011;1815;50.950;6.920;2023-10-19T14:55:18;5.33;;;2.07;;
3601;SDS011;1815;50.950;6.920;2023-10-19T14:57:46;3.93;;;1.90;;
3601;SDS011;1815;50.950;6.920;2023-10-19T15:00:21;3.83;;;1.70;;
3601;SDS011;1815;50.950;6.920;2023-10-19T15:02:59;10.63;;;2.97;;
3601;SDS011;1815;50.950;6.920;2023-10-19T15:05:27;7.30;;;2.57;;
3601;SDS011;1815;50.950;6.920;2023-10-19T15:07:53;5.37;;;2.03;;
3601;SDS011;1815;50.950;6.920;2023-10-19T15:10:24;6.27;;;2.20;;
3601;SDS011;1815;50.950;6.920;2023-10-19T15:12:54;6.80;;;1.90;;
3601;SDS011;1815;50.950;6.920;2023-10-19T15:15:24;7.73;;;3.03;;
3601;SDS011;1815;50.950;6.920;2023-10-19T15:17:51;6.50;;;3.17;;
3601;SDS011;1815;50.950;6.920;2023-10-19T15:20:18;5.10;;;2.70;;
3601;SDS011;1815;50.950;6.920;2023-10-19T15:22:46;5.60;;;2.23;;
3601;SDS011;1815;50.950;6.920;2023-10-19T15:25:12;5.83;;;2.50;;
3601;SDS011;1815;50.950;6.920;2023-10-19T15:27:40;6.40;;;2.53;;
3601;SDS011;1815;50.950;6.920;2023-10-19T15:30:08;5.50;;;2.90;;
3601;SDS011;1815;50.950;6.920;2023-10-19T15:32:36;7.67;;;3.07;;
3601;SDS011;1815;50.950;6.920;2023-10-19T15:35:11;8.23;;;2.47;;
3601;SDS011;1815;50.950;6.920;2023-10-19T15:37:46;4.33;;;1.80;;
3601;SDS011;1815;50.950;6.920;2023-10-19T15:40:15;4.10;;;3.10;;